Time;durP1;ratioP1;P1;durP2;ratioP2;P2;SDS_P1;SDS_P2;PMS_P1;PMS_P2;Temp;Humidity;BMP_temperature;BMP_pressure;BME280_temperature;BME280_humidity;BME280_pressure;Samples;Min_cycle;Max_cycle;Signal;HPM_P1;HPM_P2
2022/05/11 00:00:05;;;;;;;6.93;6.37;;;20.60;18.80;;;;;;6157728;28;20275;-54
2022/05/11 00:03:08;;;;;;;8.90;7.27;;;20.60;20.80;;;;;;6183099;28;20357;-54
2022/05/11 00:06:11;;;;;;;8.07;6.60;;;20.50;20.70;;;;;;6177288;28;20633;-53
2022/05/11 00:09:15;;;;;;;9.43;7.13;;;20.40;30.00;;;;;;6175779;28;20922;-56
2022/05/11 00:12:18;;;;;;;7.50;7.00;;;20.30;38.70;;;;;;6178510;28;20379;-54
2022/05/11 00:15:23;;;;;;;7.90;7.30;;;20.10;44.60;;;;;;6165035;28;20261;-55
2022/05/11 00:18:25;;;;;;;8.60;7.80;;;19.90;54.30;;;;;;6157270;28;20268;-55
2022/05/11 00:21:29;;;;;;;8.50;7.77;;;19.80;62.20;;;;;;6159310;28;20391;-55
2022/05/11 00:24:33;;;;;;;10.07;7.77;;;19.70;67.80;;;;;;6174112;28;20744;-54
2022/05/11 00:27:36;;;;;;;8.23;7.63;;;19.60;75.20;;;;;;6177689;28;20734;-55
2022/05/11 00:30:39;;;;;;;9.00;8.13;;;19.40;81.30;;;;;;6171322;28;20248;-54
2022/05/11 00:33:42;;;;;;;10.13;7.77;;;19.40;81.30;;;;;;6177106;28;20243;-55
2022/05/11 00:36:45;;;;;;;8.80;8.00;;;19.30;89.60;;;;;;6198009;28;20326;-55
2022/05/11 00:39:49;;;;;;;8.70;7.90;;;19.10;92.10;;;;;;6184160;28;20319;-55
2022/05/11 00:42:53;;;;;;;8.63;7.70;;;19.10;93.00;;;;;;6153266;28;20368;-54
2022/05/11 00:46:11;;;;;;;10.87;9.90;;;19.00;94.70;;;;;;6157337;28;20245;-55
2022/05/11 00:49:38;;;;;;;8.40;7.77;;;18.90;95.70;;;;;;6156956;28;20313;-55
2022/05/11 00:52:45;;;;;;;8.40;7.90;;;18.90;97.30;;;;;;6156125;28;20302;-54
2022/05/11 00:55:54;;;;;;;8.37;7.87;;;18.80;99.50;;;;;;6172747;28;20335;-55
2022/05/11 00:59:05;;;;;;;8.90;8.37;;;18.80;99.80;;;;;;6169542;28;20395;-55
2022/05/11 01:02:13;;;;;;;8.30;7.80;;;18.70;99.90;;;;;;6154668;28;20291;-55
2022/05/11 01:05:16;;;;;;;8.70;8.10;;;18.60;99.90;;;;;;6194663;28;20358;-55
2022/05/11 01:08:21;;;;;;;8.50;8.03;;;18.50;99.90;;;;;;6191275;28;20386;-54
2022/05/11 01:11:29;;;;;;;7.87;7.27;;;18.50;99.90;;;;;;6168991;28;20733;-54
2022/05/11 01:14:45;;;;;;;7.80;7.30;;;18.50;99.90;;;;;;6178440;28;20236;-55
2022/05/11 01:17:49;;;;;;;8.13;7.53;;;18.40;99.90;;;;;;6177228;28;20248;-55
2022/05/11 01:20:52;;;;;;;7.87;7.37;;;18.40;99.90;;;;;;6180387;28;20445;-55
2022/05/11 01:24:00;;;;;;;8.53;7.83;;;18.40;99.90;;;;;;6178836;28;20239;-55
2022/05/11 01:27:28;;;;;;;7.37;7.03;;;18.40;99.90;;;;;;6162809;28;20233;-54
2022/05/11 01:30:32;;;;;;;8.27;7.67;;;18.40;99.90;;;;;;6156289;28;20366;-55
2022/05/11 01:33:38;;;;;;;8.17;7.30;;;18.30;97.70;;;;;;6168297;28;20393;-55
2022/05/11 01:36:43;;;;;;;7.93;7.07;;;18.30;97.60;;;;;;6173038;28;20378;-55
2022/05/11 01:39:46;;;;;;;7.93;7.43;;;18.30;97.50;;;;;;6183393;28;20789;-55
2022/05/11 01:42:50;;;;;;;8.27;7.57;;;18.30;98.90;;;;;;6175389;28;20255;-54
2022/05/11 01:45:54;;;;;;;7.87;7.17;;;18.20;98.90;;;;;;6169742;28;20248;-54
2022/05/11 01:48:57;;;;;;;7.07;6.73;;;18.20;99.90;;;;;;6155694;28;20243;-55
2022/05/11 01:52:00;;;;;;;7.37;6.77;;;18.20;99.90;;;;;;6154751;28;20237;-55
2022/05/11 01:55:03;;;;;;;7.67;7.03;;;18.20;98.80;;;;;;6158781;28;20920;-54
2022/05/11 01:58:11;;;;;;;7.87;7.43;;;18.20;99.60;;;;;;6152463;28;20698;-54
2022/05/11 02:01:15;;;;;;;8.60;7.90;;;18.20;99.90;;;;;;6154468;28;20247;-54
2022/05/11 02:07:54;;;;;;;9.13;8.27;;;18.20;99.90;;;;;;6163784;28;20239;-55
2022/05/11 02:10:57;;;;;;;8.97;8.17;;;18.20;99.90;;;;;;6171440;28;20762;-57
2022/05/11 02:14:13;;;;;;;8.70;8.03;;;18.20;99.90;;;;;;6152938;28;20652;-56
2022/05/11 02:17:16;;;;;;;8.63;7.80;;;18.20;99.90;;;;;;6153212;28;20306;-55
2022/05/11 02:20:20;;;;;;;8.13;7.43;;;18.20;99.90;;;;;;6167263;28;20378;-54
2022/05/11 02:23:24;;;;;;;7.70;7.23;;;18.10;99.90;;;;;;6175059;28;20379;-55
2022/05/11 02:26:27;;;;;;;7.57;7.17;;;18.10;99.90;;;;;;6175566;28;20321;-56
2022/05/11 02:29:31;;;;;;;7.73;7.13;;;18.00;99.90;;;;;;6192913;28;20289;-54
2022/05/11 02:32:34;;;;;;;8.93;7.77;;;18.00;99.90;;;;;;6179838;28;20651;-55
2022/05/11 02:35:38;;;;;;;7.87;7.40;;;18.00;99.90;;;;;;6193801;28;20393;-55
2022/05/11 02:38:42;;;;;;;7.13;6.73;;;18.00;99.90;;;;;;6170050;28;20406;-52
2022/05/11 02:41:45;;;;;;;7.03;6.67;;;18.00;99.90;;;;;;6181430;28;20246;-54
2022/05/11 02:44:49;;;;;;;8.13;7.53;;;17.90;99.90;;;;;;6169675;28;20308;-55
2022/05/11 02:47:53;;;;;;;7.83;7.30;;;17.90;99.90;;;;;;6158106;28;20315;-53
2022/05/11 02:50:58;;;;;;;7.03;6.70;;;17.90;99.90;;;;;;6160918;28;20240;-55
2022/05/11 02:54:01;;;;;;;7.93;7.23;;;17.80;99.90;;;;;;6166212;28;20594;-54
2022/05/11 02:57:05;;;;;;;7.03;6.63;;;17.80;99.90;;;;;;6180017;28;20610;-55
2022/05/11 03:00:17;;;;;;;7.33;6.77;;;17.80;99.90;;;;;;6163325;28;20241;-55
2022/05/11 03:03:21;;;;;;;7.97;7.43;;;17.80;99.90;;;;;;6174224;28;20319;-54
2022/05/11 03:06:24;;;;;;;7.13;6.73;;;17.70;99.90;;;;;;6202517;28;20346;-55
2022/05/11 03:09:28;;;;;;;7.07;6.67;;;17.70;99.90;;;;;;6176174;28;20617;-55
2022/05/11 03:12:33;;;;;;;7.40;6.90;;;17.70;99.90;;;;;;6178740;28;20757;-54
2022/05/11 03:15:38;;;;;;;6.53;6.07;;;17.70;99.90;;;;;;6182551;28;20745;-54
2022/05/11 03:18:40;;;;;;;8.27;7.73;;;17.70;99.90;;;;;;6161055;28;20245;-54
2022/05/11 03:21:43;;;;;;;7.47;6.97;;;17.70;99.90;;;;;;6160632;28;20264;-55
2022/05/11 03:24:46;;;;;;;7.40;7.00;;;17.60;99.90;;;;;;6177315;28;20233;-54
2022/05/11 03:27:49;;;;;;;6.23;6.03;;;17.60;99.90;;;;;;6155184;28;20706;-54
2022/05/11 03:30:54;;;;;;;6.30;6.07;;;17.60;99.90;;;;;;6159185;28;20323;-54
2022/05/11 03:37:19;;;;;;;7.90;7.30;;;17.60;99.90;;;;;;6192435;28;20239;-55
2022/05/11 03:40:22;;;;;;;7.00;6.70;;;17.50;99.90;;;;;;6194064;28;20289;-55
2022/05/11 03:43:24;;;;;;;7.37;6.87;;;17.50;99.90;;;;;;6178656;28;20440;-55
2022/05/11 03:46:28;;;;;;;7.73;7.30;;;17.60;99.90;;;;;;6190454;28;20361;-55
2022/05/11 03:49:43;;;;;;;7.20;6.80;;;17.50;99.90;;;;;;6182355;28;20591;-55
2022/05/11 03:52:47;;;;;;;7.80;7.30;;;17.50;99.90;;;;;;6172286;28;20232;-54
2022/05/11 03:55:49;;;;;;;8.33;7.53;;;17.50;99.90;;;;;;6180658;28;20232;-54
2022/05/11 03:58:53;;;;;;;6.70;6.40;;;17.50;99.90;;;;;;6192744;28;20239;-55
2022/05/11 04:01:57;;;;;;;7.67;7.20;;;17.60;99.90;;;;;;6184528;28;20255;-54
2022/05/11 04:05:00;;;;;;;8.13;7.70;;;17.50;99.90;;;;;;6182639;28;20465;-54
2022/05/11 04:08:02;;;;;;;7.13;6.73;;;17.50;99.90;;;;;;6185819;28;20407;-54
2022/05/11 04:11:05;;;;;;;8.23;7.57;;;17.60;99.90;;;;;;6184391;28;20891;-55
2022/05/11 04:14:08;;;;;;;7.90;7.30;;;17.60;99.90;;;;;;6184747;28;20232;-54
2022/05/11 04:17:13;;;;;;;7.07;6.77;;;17.60;99.90;;;;;;6187076;28;20486;-54
2022/05/11 04:20:18;;;;;;;7.70;7.13;;;17.60;99.90;;;;;;6189875;28;20329;-55
2022/05/11 04:23:21;;;;;;;8.83;8.00;;;17.60;99.90;;;;;;6190466;28;20228;-55
2022/05/11 04:26:24;;;;;;;7.50;7.10;;;17.70;99.90;;;;;;6169311;28;20334;-57
2022/05/11 04:29:27;;;;;;;7.40;6.90;;;17.70;99.90;;;;;;6160655;28;20264;-53
2022/05/11 04:32:33;;;;;;;7.80;7.23;;;17.70;99.90;;;;;;6184601;28;20239;-55
2022/05/11 04:35:37;;;;;;;7.97;7.37;;;17.70;99.90;;;;;;6182124;28;20569;-55
2022/05/11 04:38:43;;;;;;;7.67;7.00;;;17.70;99.90;;;;;;6195102;28;20301;-54
2022/05/11 04:41:45;;;;;;;8.90;8.20;;;17.80;99.90;;;;;;6187049;28;20244;-53
2022/05/11 04:44:48;;;;;;;9.13;8.57;;;17.80;99.90;;;;;;6185668;28;20721;-54
2022/05/11 04:47:52;;;;;;;8.20;7.73;;;17.80;99.90;;;;;;6179752;28;20364;-55
2022/05/11 04:51:01;;;;;;;8.57;7.93;;;17.90;99.90;;;;;;6182781;28;20223;-54
2022/05/11 04:54:05;;;;;;;8.87;8.33;;;17.90;99.90;;;;;;6178092;28;20700;-55
2022/05/11 04:57:15;;;;;;;8.50;7.80;;;17.90;99.90;;;;;;6184795;28;20240;-54
2022/05/11 05:00:19;;;;;;;9.57;8.90;;;18.00;99.90;;;;;;6173155;28;20400;-54
2022/05/11 05:03:23;;;;;;;8.77;8.17;;;18.00;99.90;;;;;;6192316;28;20638;-55
2022/05/11 05:06:27;;;;;;;8.70;8.03;;;18.00;99.90;;;;;;6187650;28;20239;-50
2022/05/11 05:09:30;;;;;;;10.40;9.60;;;18.00;99.90;;;;;;6186110;28;20235;-54
2022/05/11 05:12:33;;;;;;;9.47;8.87;;;18.00;99.90;;;;;;6190182;28;20944;-54
2022/05/11 05:15:37;;;;;;;8.47;8.00;;;18.10;99.90;;;;;;6175185;28;20829;-56
2022/05/11 05:18:42;;;;;;;10.63;9.73;;;18.10;99.90;;;;;;6185396;28;20247;-55
2022/05/11 05:21:45;;;;;;;11.20;10.03;;;18.10;99.90;;;;;;6176626;28;20268;-54
2022/05/11 05:24:48;;;;;;;9.77;9.03;;;18.10;99.90;;;;;;6179510;28;20251;-54
2022/05/11 05:27:51;;;;;;;10.70;9.63;;;18.00;99.90;;;;;;6181590;28;20271;-55
2022/05/11 05:31:05;;;;;;;9.37;8.77;;;18.00;99.90;;;;;;6176587;28;20279;-54
2022/05/11 05:34:09;;;;;;;8.50;8.00;;;18.00;99.90;;;;;;6187433;28;20746;-55
2022/05/11 05:37:13;;;;;;;12.13;10.87;;;18.00;99.90;;;;;;6186962;28;20236;-54
2022/05/11 05:40:15;;;;;;;11.40;10.27;;;18.00;99.90;;;;;;6179850;28;20244;-54
2022/05/11 05:43:18;;;;;;;9.90;9.20;;;18.00;99.90;;;;;;6186563;28;20352;-55
2022/05/11 05:46:21;;;;;;;10.70;9.80;;;18.10;99.90;;;;;;6176271;28;20240;-52
2022/05/11 05:49:29;;;;;;;9.50;8.90;;;18.10;99.90;;;;;;6192937;28;20444;-55
2022/05/11 05:52:32;;;;;;;11.43;8.97;;;18.10;99.90;;;;;;6192240;28;20611;-55
2022/05/11 05:55:37;;;;;;;10.63;9.77;;;18.20;99.90;;;;;;6172469;28;20343;-55
2022/05/11 05:58:40;;;;;;;12.63;11.43;;;18.20;99.90;;;;;;6174455;28;20274;-55
2022/05/11 06:01:46;;;;;;;13.03;10.40;;;18.30;99.90;;;;;;6182100;28;20247;-56
2022/05/11 06:04:59;;;;;;;11.63;10.57;;;18.30;99.90;;;;;;6180439;28;20774;-55
2022/05/11 06:08:02;;;;;;;11.27;10.47;;;18.40;99.90;;;;;;6185884;28;20903;-54
2022/05/11 06:11:06;;;;;;;11.53;10.50;;;18.40;99.90;;;;;;6179005;28;20339;-56
2022/05/11 06:14:09;;;;;;;11.30;10.30;;;18.40;99.90;;;;;;6177278;28;20828;-54
2022/05/11 06:17:14;;;;;;;12.60;11.03;;;18.50;99.90;;;;;;6186784;28;20239;-53
2022/05/11 06:20:19;;;;;;;11.00;9.87;;;18.60;99.90;;;;;;6187482;28;20697;-53
2022/05/11 06:23:22;;;;;;;18.97;12.17;;;18.60;99.90;;;;;;6183093;28;20243;-54
2022/05/11 06:26:25;;;;;;;12.90;11.60;;;18.70;99.90;;;;;;6184450;28;20606;-56
2022/05/11 06:29:52;;;;;;;16.40;11.67;;;18.70;99.90;;;;;;6189294;28;20224;-55
2022/05/11 06:33:01;;;;;;;12.23;11.00;;;18.70;99.90;;;;;;6183551;28;20232;-55
2022/05/11 06:36:07;;;;;;;11.50;10.63;;;18.70;99.90;;;;;;6179858;28;20375;-54
2022/05/11 06:39:10;;;;;;;11.00;10.03;;;18.70;99.90;;;;;;6193018;28;20243;-55
2022/05/11 06:42:20;;;;;;;11.33;10.13;;;18.70;99.90;;;;;;6183652;28;20243;-56
2022/05/11 06:45:23;;;;;;;10.90;10.00;;;18.70;99.90;;;;;;6178394;28;20244;-54
2022/05/11 06:48:28;;;;;;;12.20;11.20;;;18.80;99.90;;;;;;6184577;28;20386;-56
2022/05/11 06:51:32;;;;;;;12.40;11.10;;;18.90;99.90;;;;;;6193125;28;20629;-54
2022/05/11 07:01:19;;;;;;;9.50;8.90;;;19.40;99.90;;;;;;6189178;28;20231;-56
2022/05/11 07:04:23;;;;;;;10.37;9.20;;;19.50;99.90;;;;;;6185560;28;20259;-54
2022/05/11 07:07:27;;;;;;;9.87;9.27;;;19.50;99.90;;;;;;6183607;28;20736;-54
2022/05/11 07:10:30;;;;;;;11.57;9.83;;;19.60;99.90;;;;;;6183546;28;21007;-54
2022/05/11 07:13:32;;;;;;;11.07;10.07;;;19.70;99.90;;;;;;6181931;28;20260;-53
2022/05/11 07:16:36;;;;;;;9.73;8.87;;;19.80;99.90;;;;;;6187570;28;20427;-54
2022/05/11 07:19:42;;;;;;;9.40;8.80;;;19.80;99.90;;;;;;6186058;28;20251;-55
2022/05/11 07:22:46;;;;;;;11.90;8.47;;;20.00;99.90;;;;;;6190915;28;20256;-54
2022/05/11 07:25:49;;;;;;;10.43;9.50;;;19.90;99.90;;;;;;6183191;28;20335;-55
2022/05/11 07:28:52;;;;;;;9.93;9.13;;;19.90;99.90;;;;;;6195548;28;20592;-55
2022/05/11 07:32:01;;;;;;;9.23;8.53;;;19.90;99.90;;;;;;6181497;28;20326;-53
2022/05/11 07:35:05;;;;;;;9.90;9.03;;;20.00;99.90;;;;;;6191182;28;20318;-53
2022/05/11 07:38:11;;;;;;;10.43;9.43;;;20.20;99.90;;;;;;6192967;28;20239;-54
2022/05/11 07:41:14;;;;;;;8.87;8.27;;;20.20;99.90;;;;;;6188509;28;20361;-53
2022/05/11 07:44:17;;;;;;;8.70;8.17;;;20.60;99.90;;;;;;6189894;28;20246;-54
2022/05/11 07:47:20;;;;;;;9.33;8.10;;;20.80;93.80;;;;;;6189892;28;20240;-54
2022/05/11 07:50:23;;;;;;;9.00;8.30;;;20.80;82.70;;;;;;6188676;28;20240;-54
2022/05/11 07:53:28;;;;;;;10.30;8.87;;;20.70;82.60;;;;;;6190300;28;20231;-55
2022/05/11 08:00:00;;;;;;;7.93;7.50;;;21.00;82.80;;;;;;6140902;28;20364;-56
2022/05/11 08:03:03;;;;;;;7.60;7.10;;;21.10;72.90;;;;;;6193519;28;20695;-55
2022/05/11 08:06:11;;;;;;;8.10;7.40;;;21.30;68.00;;;;;;6191496;28;20297;-54
2022/05/11 08:09:16;;;;;;;7.40;6.87;;;21.50;69.00;;;;;;6190999;28;20232;-54
2022/05/11 08:12:18;;;;;;;7.00;6.63;;;21.70;55.90;;;;;;6184980;28;20228;-53
2022/05/11 08:15:24;;;;;;;8.07;7.20;;;21.70;52.20;;;;;;6199752;28;20345;-54
2022/05/11 08:18:27;;;;;;;9.53;6.90;;;21.60;52.20;;;;;;6192822;28;20318;-54
2022/05/11 08:21:30;;;;;;;8.07;7.47;;;21.70;52.00;;;;;;6198662;28;20252;-54
2022/05/11 08:24:34;;;;;;;8.20;7.53;;;21.50;52.10;;;;;;6187911;28;20725;-55
2022/05/11 08:27:38;;;;;;;7.60;6.97;;;21.50;51.00;;;;;;6182363;28;20658;-54
2022/05/11 08:34:06;;;;;;;8.33;7.53;;;21.70;49.30;;;;;;6191795;28;20883;-55
2022/05/11 08:37:14;;;;;;;8.13;7.47;;;21.70;52.80;;;;;;6179005;28;20711;-55
2022/05/11 08:40:29;;;;;;;8.40;7.60;;;22.00;46.80;;;;;;6195602;28;20306;-56
2022/05/11 08:43:33;;;;;;;7.90;7.40;;;22.20;38.40;;;;;;6179936;28;20395;-55
2022/05/11 08:46:45;;;;;;;8.60;8.07;;;22.20;41.80;;;;;;6200704;28;20382;-54
2022/05/11 08:49:52;;;;;;;8.43;7.73;;;22.40;38.50;;;;;;6192361;28;20270;-55
2022/05/11 08:53:03;;;;;;;9.30;8.70;;;22.20;36.30;;;;;;6192423;28;20251;-55
2022/05/11 08:56:17;;;;;;;8.70;8.00;;;22.30;38.90;;;;;;6181750;28;20309;-56
2022/05/11 08:59:23;;;;;;;8.17;7.57;;;22.50;35.50;;;;;;6191452;28;20241;-55
2022/05/11 09:02:29;;;;;;;8.63;8.03;;;22.80;29.20;;;;;;6188337;28;20243;-54
2022/05/11 09:05:33;;;;;;;9.10;8.20;;;23.00;27.00;;;;;;6197861;28;20247;-54
2022/05/11 09:08:38;;;;;;;8.50;7.87;;;23.00;26.20;;;;;;6188536;28;20625;-55
2022/05/11 09:11:47;;;;;;;10.10;8.10;;;23.20;22.70;;;;;;6190629;28;20400;-54
2022/05/11 09:14:54;;;;;;;8.90;8.40;;;23.40;22.90;;;;;;6186237;28;20358;-53
2022/05/11 09:18:06;;;;;;;12.90;8.93;;;23.50;22.90;;;;;;6183407;28;20252;-55
2022/05/11 09:21:25;;;;;;;9.10;8.60;;;23.60;23.00;;;;;;6191194;28;20486;-54
2022/05/11 09:24:43;;;;;;;9.40;8.80;;;23.70;23.10;;;;;;6189901;28;20281;-55
2022/05/11 09:27:49;;;;;;;10.27;9.67;;;23.60;23.10;;;;;;6187287;28;20615;-54
2022/05/11 09:31:02;;;;;;;12.00;9.60;;;23.80;23.10;;;;;;6175359;28;20240;-54
2022/05/11 09:34:07;;;;;;;14.50;10.60;;;24.00;23.40;;;;;;6188022;28;20313;-54
2022/05/11 09:37:35;;;;;;;11.07;10.30;;;24.10;23.40;;;;;;6171046;28;20239;-53
2022/05/11 09:40:55;;;;;;;10.20;9.60;;;24.30;23.50;;;;;;6186399;28;20263;-55
2022/05/11 09:44:18;;;;;;;10.10;9.13;;;24.60;23.70;;;;;;6191723;28;20747;-55
2022/05/11 09:47:27;;;;;;;15.97;10.30;;;24.60;18.10;;;;;;6185346;28;20340;-54
2022/05/11 09:50:30;;;;;;;11.07;10.03;;;24.80;17.70;;;;;;6175517;28;20447;-55
2022/05/11 09:53:37;;;;;;;11.40;10.47;;;24.50;13.40;;;;;;6189569;28;20270;-54
2022/05/11 09:56:44;;;;;;;10.37;9.80;;;24.50;17.40;;;;;;6176730;28;20248;-54
2022/05/11 09:59:51;;;;;;;10.93;9.77;;;24.60;18.50;;;;;;6193994;28;20303;-53
2022/05/11 10:03:08;;;;;;;11.23;10.13;;;24.80;16.50;;;;;;6187518;28;20239;-54
2022/05/11 10:06:12;;;;;;;10.67;9.87;;;25.00;14.30;;;;;;6189305;28;20315;-54
2022/05/11 10:09:17;;;;;;;11.00;10.00;;;25.10;11.30;;;;;;6192910;28;20235;-54
2022/05/11 10:12:26;;;;;;;11.30;10.30;;;25.40;15.00;;;;;;6186849;28;20309;-53
2022/05/11 10:22:33;;;;;;;10.20;9.50;;;25.80;5.00;;;;;;6188145;28;20338;-54
2022/05/11 10:25:39;;;;;;;9.33;8.57;;;25.90;4.50;;;;;;6175306;28;20300;-53
2022/05/11 10:28:52;;;;;;;9.10;8.40;;;26.00;3.90;;;;;;6185991;28;20326;-53
2022/05/11 10:32:06;;;;;;;9.37;8.53;;;25.90;1.50;;;;;;6177728;28;20243;-54
2022/05/11 10:35:14;;;;;;;9.00;8.17;;;25.90;1.50;;;;;;6149436;28;20252;-52
2022/05/11 10:38:27;;;;;;;10.67;8.20;;;25.90;1.00;;;;;;6186329;28;20239;-52
2022/05/11 10:41:36;;;;;;;8.77;7.97;;;26.10;1.00;;;;;;6183667;28;20263;-53
2022/05/11 10:44:53;;;;;;;8.67;7.97;;;26.10;1.00;;;;;;6189594;28;20250;-54
2022/05/11 10:48:21;;;;;;;7.50;7.10;;;26.10;1.00;;;;;;6186396;28;20279;-53
2022/05/11 10:51:39;;;;;;;7.70;7.20;;;26.20;1.00;;;;;;6188775;28;20341;-54
2022/05/11 10:54:49;;;;;;;7.60;7.10;;;26.00;1.00;;;;;;6183494;28;20374;-54
2022/05/11 10:58:12;;;;;;;7.83;7.27;;;26.00;1.00;;;;;;6189803;28;20239;-53
2022/05/11 11:01:16;;;;;;;7.70;7.30;;;26.10;1.00;;;;;;6201936;28;20333;-53
2022/05/11 11:04:46;;;;;;;7.33;6.77;;;26.30;1.00;;;;;;6184130;28;20715;-54
2022/05/11 11:07:57;;;;;;;7.97;7.40;;;26.50;1.00;;;;;;6192434;28;20323;-54
2022/05/11 11:11:08;;;;;;;7.70;7.20;;;26.60;1.00;;;;;;6186086;28;20516;-52
2022/05/11 11:14:12;;;;;;;8.13;7.53;;;26.60;1.00;;;;;;6193167;28;20296;-53
2022/05/11 11:17:35;;;;;;;7.13;6.53;;;26.60;1.00;;;;;;6185505;28;20235;-60
2022/05/11 11:20:43;;;;;;;7.00;6.30;;;26.70;1.00;;;;;;6190951;28;20334;-54
2022/05/11 11:23:47;;;;;;;8.73;7.03;;;26.80;1.00;;;;;;6188239;28;20248;-53
2022/05/11 11:26:54;;;;;;;7.87;7.20;;;27.00;1.00;;;;;;6173502;28;20239;-53
2022/05/11 11:30:21;;;;;;;6.60;6.00;;;27.10;1.00;;;;;;6173330;28;20616;-53
2022/05/11 11:33:25;;;;;;;6.17;5.73;;;27.10;1.00;;;;;;6188478;28;20240;-53
2022/05/11 11:36:31;;;;;;;5.80;5.40;;;26.80;1.00;;;;;;6191954;28;20262;-53
2022/05/11 11:40:15;;;;;;;9.23;6.00;;;26.90;1.00;;;;;;6182826;28;20235;-53
2022/05/11 11:43:40;;;;;;;5.80;5.37;;;27.20;1.00;;;;;;6150523;28;20260;-54
2022/05/11 11:46:45;;;;;;;6.37;5.13;;;27.40;1.00;;;;;;6190602;28;20294;-53
2022/05/11 11:49:47;;;;;;;6.67;5.67;;;27.40;1.00;;;;;;6193125;28;20263;-54
2022/05/11 11:53:08;;;;;;;6.10;5.20;;;27.30;1.00;;;;;;6188306;28;20832;-49
2022/05/11 11:56:45;;;;;;;5.90;5.40;;;27.40;1.00;;;;;;6185485;28;20305;-54
2022/05/11 11:59:50;;;;;;;5.47;5.07;;;27.70;1.00;;;;;;6179385;28;20228;-54
2022/05/11 12:02:54;;;;;;;5.13;4.73;;;27.70;1.00;;;;;;6178381;28;20236;-52
2022/05/11 12:15:01;;;;;;;5.77;5.23;;;27.90;1.00;;;;;;6190095;28;20246;-53
2022/05/11 12:16:11;;;;;;;4.80;4.47;;;28.30;1.00;;;;;;6156800;28;20541;-54
2022/05/11 12:19:16;;;;;;;6.17;4.33;;;28.20;1.00;;;;;;6181861;28;20263;-54
2022/05/11 12:22:22;;;;;;;6.67;5.10;;;27.90;1.00;;;;;;6200303;28;20317;-53
2022/05/11 12:25:29;;;;;;;5.80;5.30;;;28.00;1.00;;;;;;6186478;28;20231;-52
2022/05/11 12:28:37;;;;;;;5.27;4.77;;;27.80;1.00;;;;;;6185477;28;20283;-53
2022/05/11 12:31:40;;;;;;;4.83;4.60;;;27.70;1.00;;;;;;6193992;28;20266;-54
2022/05/11 12:34:46;;;;;;;10.67;5.13;;;27.60;1.00;;;;;;6182720;28;20228;-53
2022/05/11 12:37:56;;;;;;;6.23;4.77;;;27.60;1.00;;;;;;6194581;28;20338;-53
2022/05/11 12:41:08;;;;;;;12.63;5.57;;;27.80;1.00;;;;;;6189243;28;20258;-54
2022/05/11 12:44:15;;;;;;;5.83;5.03;;;27.90;1.00;;;;;;6189762;28;20235;-53
2022/05/11 12:47:18;;;;;;;5.20;4.73;;;27.70;1.00;;;;;;6192095;28;20736;-54
2022/05/11 12:50:26;;;;;;;5.40;5.00;;;27.60;1.00;;;;;;6188267;28;20355;-53
2022/05/11 12:53:37;;;;;;;6.47;4.60;;;27.70;1.00;;;;;;6195794;28;20387;-54
2022/05/11 12:56:43;;;;;;;7.87;4.53;;;27.90;1.00;;;;;;6184966;28;20318;-53
2022/05/11 12:59:50;;;;;;;5.47;4.90;;;28.20;1.00;;;;;;6184434;28;20240;-53
2022/05/11 13:03:22;;;;;;;14.53;5.53;;;28.30;1.00;;;;;;6181640;28;20474;-54
2022/05/11 13:06:29;;;;;;;9.43;4.77;;;28.30;1.00;;;;;;6190969;28;20285;-54
2022/05/11 13:09:37;;;;;;;9.50;4.53;;;28.40;1.00;;;;;;6190984;28;20235;-53
2022/05/11 13:12:41;;;;;;;5.37;4.57;;;28.50;1.00;;;;;;6185622;28;20516;-54
2022/05/11 13:15:47;;;;;;;5.33;4.13;;;28.60;1.00;;;;;;6190638;28;20299;-54
2022/05/11 13:18:50;;;;;;;9.27;4.47;;;28.50;1.00;;;;;;6188213;28;20228;-54
2022/05/11 13:21:56;;;;;;;7.33;4.60;;;28.60;1.00;;;;;;6188902;28;20302;-54
2022/05/11 13:25:02;;;;;;;4.43;4.23;;;28.60;1.00;;;;;;6182922;28;20752;-53
2022/05/11 13:28:15;;;;;;;5.17;4.93;;;28.50;1.00;;;;;;6177418;28;20712;-53
2022/05/11 13:31:29;;;;;;;5.17;4.83;;;28.40;1.00;;;;;;6181398;28;20382;-53
2022/05/11 13:34:35;;;;;;;9.87;4.63;;;28.50;1.00;;;;;;6180689;28;20242;-54
2022/05/11 13:37:38;;;;;;;9.67;4.90;;;28.50;1.00;;;;;;6191921;28;20808;-53
2022/05/11 13:40:43;;;;;;;5.17;4.60;;;28.60;1.00;;;;;;6183996;28;20342;-53
2022/05/11 13:43:50;;;;;;;4.83;4.50;;;28.60;1.00;;;;;;6198131;28;20243;-53
2022/05/11 13:50:17;;;;;;;6.43;4.70;;;28.70;1.00;;;;;;6182191;28;20639;-53
2022/05/11 13:53:27;;;;;;;4.63;4.30;;;28.80;1.00;;;;;;6193670;28;20371;-54
2022/05/11 13:56:30;;;;;;;4.90;4.50;;;28.50;1.00;;;;;;6191087;28;20240;-54
2022/05/11 13:59:43;;;;;;;6.13;4.63;;;28.50;1.00;;;;;;6177380;28;20246;-53
2022/05/11 14:02:53;;;;;;;4.60;4.20;;;28.30;1.00;;;;;;6178288;28;20600;-52
2022/05/11 14:05:56;;;;;;;5.30;4.83;;;28.20;1.00;;;;;;6191166;28;20299;-53
2022/05/11 14:09:00;;;;;;;4.53;4.10;;;28.20;1.00;;;;;;6190521;28;20383;-53
2022/05/11 14:12:09;;;;;;;6.43;4.40;;;28.20;1.00;;;;;;6193627;28;20241;-53
2022/05/11 14:15:13;;;;;;;5.17;4.60;;;28.20;1.00;;;;;;6157331;28;20231;-51
2022/05/11 14:18:20;;;;;;;5.33;5.03;;;28.20;1.00;;;;;;6192077;28;20607;-53
2022/05/11 14:21:23;;;;;;;10.33;5.13;;;28.40;1.00;;;;;;6190284;28;20242;-54
2022/05/11 14:24:26;;;;;;;7.10;5.27;;;28.50;1.00;;;;;;6187730;28;20228;-53
2022/05/11 14:27:29;;;;;;;6.97;4.40;;;28.60;1.00;;;;;;6176542;28;20231;-55
2022/05/11 14:30:34;;;;;;;5.93;4.67;;;28.60;1.00;;;;;;6192668;28;20330;-53
2022/05/11 14:33:37;;;;;;;5.07;4.60;;;28.70;1.00;;;;;;6186389;28;20333;-54
2022/05/11 14:36:40;;;;;;;5.77;4.70;;;28.60;1.00;;;;;;6181792;28;20244;-52
2022/05/11 14:39:44;;;;;;;5.93;4.30;;;28.80;1.00;;;;;;6198489;28;20397;-54
2022/05/11 14:42:46;;;;;;;5.23;4.83;;;28.80;1.00;;;;;;6188671;28;20394;-54
2022/05/11 14:45:55;;;;;;;6.60;4.47;;;28.90;1.00;;;;;;6191433;28;20326;-53
2022/05/11 14:48:58;;;;;;;5.40;4.90;;;28.90;1.00;;;;;;6196088;28;20390;-55
2022/05/11 14:52:01;;;;;;;4.80;4.50;;;28.90;1.00;;;;;;6193351;28;20232;-53
2022/05/11 14:55:06;;;;;;;5.10;4.23;;;28.90;1.00;;;;;;6192390;28;20263;-54
2022/05/11 15:04:52;;;;;;;12.40;4.53;;;28.90;1.00;;;;;;6193232;28;20303;-54
2022/05/11 15:07:56;;;;;;;7.03;4.83;;;28.90;1.00;;;;;;6193115;28;20239;-52
2022/05/11 15:14:26;;;;;;;4.63;4.27;;;28.60;1.00;;;;;;6188074;28;20239;-54
2022/05/11 15:17:40;;;;;;;4.47;4.23;;;28.50;1.00;;;;;;6195250;28;20272;-54
2022/05/11 15:20:52;;;;;;;6.87;4.20;;;28.50;1.00;;;;;;6198803;28;20324;-54
2022/05/11 15:23:55;;;;;;;6.07;4.73;;;28.30;1.00;;;;;;6186737;28;20319;-54
2022/05/11 15:26:58;;;;;;;5.03;4.40;;;28.20;1.00;;;;;;6186792;28;20263;-53
2022/05/11 15:30:05;;;;;;;4.97;4.63;;;28.20;1.00;;;;;;6191195;28;20376;-53
2022/05/11 15:33:11;;;;;;;5.17;4.50;;;28.20;1.00;;;;;;6183828;28;20242;-53
2022/05/11 15:36:14;;;;;;;4.10;4.07;;;28.20;1.00;;;;;;6186124;28;20263;-53
2022/05/11 15:39:17;;;;;;;5.23;4.53;;;28.10;1.00;;;;;;6192781;28;20239;-54
2022/05/11 15:42:25;;;;;;;5.57;5.00;;;28.00;1.00;;;;;;6190818;28;20243;-54
2022/05/11 15:45:29;;;;;;;5.00;4.60;;;28.10;1.00;;;;;;6193975;28;20326;-58
2022/05/11 15:48:34;;;;;;;5.03;4.57;;;28.20;1.00;;;;;;6176505;28;20570;-53
2022/05/11 15:51:45;;;;;;;4.43;4.00;;;28.20;1.00;;;;;;6192136;28;20231;-54
2022/05/11 15:54:48;;;;;;;5.13;4.77;;;28.20;1.00;;;;;;6195339;28;20227;-54
2022/05/11 15:57:51;;;;;;;7.20;4.83;;;28.30;1.00;;;;;;6174653;28;20434;-54
2022/05/11 16:00:54;;;;;;;7.03;4.87;;;28.40;1.00;;;;;;6188006;28;20263;-53
2022/05/11 16:03:58;;;;;;;7.47;4.50;;;28.30;1.00;;;;;;6187033;28;20259;-51
2022/05/11 16:07:01;;;;;;;5.40;4.87;;;28.10;1.00;;;;;;6167027;28;20294;-53
2022/05/11 16:10:05;;;;;;;5.50;5.00;;;28.10;1.00;;;;;;6189696;28;20246;-54
2022/05/11 16:13:08;;;;;;;7.23;5.20;;;28.10;1.00;;;;;;6174508;28;20263;-52
2022/05/11 16:16:11;;;;;;;5.27;4.57;;;28.20;1.00;;;;;;6175263;28;20343;-54
2022/05/11 16:22:36;;;;;;;4.60;4.27;;;28.10;1.00;;;;;;6176954;28;20236;-55
2022/05/11 16:25:39;;;;;;;5.87;5.07;;;28.00;1.00;;;;;;6181273;28;20313;-54
2022/05/11 16:28:42;;;;;;;5.23;4.93;;;27.90;1.00;;;;;;6184542;28;20246;-54
2022/05/11 16:31:45;;;;;;;7.10;5.60;;;27.80;1.00;;;;;;6176591;28;20824;-53
2022/05/11 16:34:51;;;;;;;5.53;4.93;;;27.70;1.00;;;;;;6159274;28;20231;-53
2022/05/11 16:37:55;;;;;;;4.70;4.53;;;27.70;1.00;;;;;;6180644;28;20666;-53
2022/05/11 16:40:59;;;;;;;5.87;4.57;;;27.60;1.00;;;;;;6180578;28;20232;-54
2022/05/11 16:44:02;;;;;;;4.33;4.13;;;27.50;1.00;;;;;;6178340;28;20468;-54
2022/05/11 16:47:07;;;;;;;7.77;5.07;;;27.50;1.00;;;;;;6188993;28;20236;-53
2022/05/11 16:50:12;;;;;;;5.40;5.03;;;27.50;1.00;;;;;;6188521;28;20231;-55
2022/05/11 16:53:17;;;;;;;5.07;4.77;;;27.40;1.00;;;;;;6179230;28;20240;-55
2022/05/11 16:56:20;;;;;;;4.90;4.60;;;27.30;1.00;;;;;;6187494;28;20270;-53
2022/05/11 16:59:23;;;;;;;5.53;5.23;;;27.20;1.00;;;;;;6177923;28;20799;-53
2022/05/11 17:02:26;;;;;;;4.90;4.50;;;27.10;1.00;;;;;;6177001;28;20623;-54